Time;durP1;ratioP1;P1;durP2;ratioP2;P2;SDS_P1;SDS_P2;PMS_P1;PMS_P2;Temp;Humidity;BMP_temperature;BMP_pressure;BME280_temperature;BME280_humidity;BME280_pressure;Samples;Min_cycle;Max_cycle;Signal;HPM_P1;HPM_P2
2024/01/01 00:01:43;;;;;;;510.02;310.35;;;;;;;-1.03;94.69;99287.28;4900759;29;20056;-85
2024/01/01 00:04:30;;;;;;;500.90;309.48;;;;;;;-0.94;95.01;99286.38;4900618;29;20048;-85
2024/01/01 00:07:15;;;;;;;536.75;327.70;;;;;;;-0.95;95.29;99282.09;4900815;29;20049;-79
2024/01/01 00:10:01;;;;;;;561.83;350.05;;;;;;;-0.95;94.80;99278.69;4898969;29;20049;-86
2024/01/01 00:12:46;;;;;;;574.65;360.80;;;;;;;-0.98;94.82;99285.03;4900363;29;20410;-81
2024/01/01 00:15:32;;;;;;;632.53;405.63;;;;;;;-0.95;94.68;99283.91;4884480;29;20048;-86
2024/01/01 00:18:18;;;;;;;620.83;410.02;;;;;;;-1.01;94.38;99276.69;4900724;29;20483;-81
2024/01/01 00:21:04;;;;;;;617.17;399.65;;;;;;;-1.02;94.76;99288.91;4900925;29;20045;-86
2024/01/01 00:23:50;;;;;;;610.42;374.48;;;;;;;-1.03;94.30;99308.16;4900673;29;20040;-81
2024/01/01 00:26:35;;;;;;;658.67;431.05;;;;;;;-1.05;94.43;99302.28;4900412;29;20045;-81
2024/01/01 00:29:22;;;;;;;626.08;397.38;;;;;;;-1.04;94.16;99300.47;4900776;29;20048;-84
2024/01/01 00:32:09;;;;;;;598.83;383.48;;;;;;;-1.07;94.49;99306.81;4900569;29;20049;-79
2024/01/01 00:34:54;;;;;;;637.47;386.50;;;;;;;-1.08;94.46;99315.63;4900361;29;20399;-86
2024/01/01 00:37:40;;;;;;;600.85;373.27;;;;;;;-1.05;94.55;99312.69;4892831;29;20045;-84
2024/01/01 00:40:26;;;;;;;544.22;333.75;;;;;;;-1.05;94.60;99310.09;4892420;29;20048;-81
2024/01/01 00:43:11;;;;;;;508.65;299.25;;;;;;;-0.99;94.58;99313.88;4892452;29;20078;-81
2024/01/01 00:45:56;;;;;;;449.25;261.83;;;;;;;-0.98;94.61;99300.69;4891914;29;20048;-82
2024/01/01 00:48:42;;;;;;;398.33;206.13;;;;;;;-0.90;94.67;99302.53;4892487;29;20048;-81
2024/01/01 00:51:27;;;;;;;413.58;227.43;;;;;;;-0.80;94.59;99305.03;4892188;29;20403;-85
2024/01/01 00:54:13;;;;;;;426.70;244.23;;;;;;;-0.79;94.84;99304.03;4900149;29;20041;-80
2024/01/01 00:56:59;;;;;;;422.30;234.45;;;;;;;-0.78;94.39;99313.53;4899939;29;20048;-86
2024/01/01 00:59:44;;;;;;;395.65;209.73;;;;;;;-0.75;94.53;99313.22;4899925;29;20048;-87
2024/01/01 01:02:30;;;;;;;416.17;231.52;;;;;;;-0.70;93.78;99303.13;4899972;29;20052;-81
2024/01/01 01:05:16;;;;;;;451.55;257.25;;;;;;;-0.67;94.50;99302.81;4899139;29;20048;-86
2024/01/01 01:08:01;;;;;;;486.08;278.90;;;;;;;-0.77;94.55;99297.72;4900196;29;20052;-84
2024/01/01 01:10:47;;;;;;;490.55;292.13;;;;;;;-0.73;94.30;99298.22;4878719;29;20044;-84
2024/01/01 01:13:32;;;;;;;512.30;309.83;;;;;;;-0.62;94.21;99305.78;4899545;29;20052;-79
2024/01/01 01:16:17;;;;;;;531.95;321.17;;;;;;;-0.56;94.71;99307.78;4891761;29;20391;-81
2024/01/01 01:19:05;;;;;;;533.67;325.50;;;;;;;-0.54;94.10;99292.75;4899601;29;20048;-85
2024/01/01 01:21:51;;;;;;;524.25;322.17;;;;;;;-0.48;93.80;99299.16;4891857;29;20052;-80
2024/01/01 01:24:37;;;;;;;539.97;335.45;;;;;;;-0.47;94.10;99298.16;4900091;29;20404;-80
2024/01/01 01:27:22;;;;;;;530.53;330.67;;;;;;;-0.41;94.15;99294.09;4892500;29;20049;-85
2024/01/01 01:30:08;;;;;;;536.58;334.45;;;;;;;-0.43;93.84;99299.50;4900877;29;20040;-82
2024/01/01 01:32:54;;;;;;;524.83;325.80;;;;;;;-0.47;93.47;99285.09;4886131;29;20044;-85
2024/01/01 01:35:39;;;;;;;519.75;319.90;;;;;;;-0.45;93.35;99279.75;4892151;29;20049;-85
2024/01/01 01:38:24;;;;;;;483.70;290.92;;;;;;;-0.43;93.59;99269.97;4899210;29;20045;-80
2024/01/01 01:41:10;;;;;;;426.75;241.73;;;;;;;-0.41;93.45;99265.38;4899529;29;20049;-85
2024/01/01 01:43:56;;;;;;;415.85;231.02;;;;;;;-0.42;93.41;99261.16;4899253;29;20041;-84
2024/01/01 01:46:41;;;;;;;301.73;147.43;;;;;;;-0.38;93.98;99255.44;4899417;29;20048;-80
2024/01/01 01:49:27;;;;;;;353.42;179.77;;;;;;;-0.40;93.66;99251.38;4885213;29;20049;-80
2024/01/01 01:52:12;;;;;;;354.10;172.48;;;;;;;-0.38;93.16;99245.00;4885248;29;20053;-80
2024/01/01 01:54:58;;;;;;;346.17;183.02;;;;;;;-0.37;93.44;99251.88;4899401;29;20058;-85
2024/01/01 01:57:44;;;;;;;344.42;176.52;;;;;;;-0.38;93.60;99239.78;4884927;29;20403;-85
2024/01/01 02:00:29;;;;;;;343.73;163.80;;;;;;;-0.41;93.73;99234.06;4891221;29;20041;-85
2024/01/01 02:03:14;;;;;;;413.40;229.48;;;;;;;-0.51;93.66;99228.97;4884840;29;20403;-86
2024/01/01 02:05:59;;;;;;;443.52;251.38;;;;;;;-0.58;93.33;99230.59;4890712;29;20487;-80
2024/01/01 02:08:45;;;;;;;441.13;247.43;;;;;;;-0.63;93.66;99217.19;4898864;29;20048;-84
2024/01/01 02:11:30;;;;;;;454.67;265.88;;;;;;;-0.66;93.57;99213.09;4898785;29;20044;-84
2024/01/01 02:14:16;;;;;;;456.20;269.13;;;;;;;-0.64;93.38;99203.31;4898517;29;20061;-82
2024/01/01 02:17:02;;;;;;;466.55;273.98;;;;;;;-0.59;93.79;99201.06;4897961;29;20070;-85
2024/01/01 02:19:50;;;;;;;478.83;281.52;;;;;;;-0.62;94.07;99200.56;4891087;29;20044;-81
2024/01/01 02:22:39;;;;;;;479.33;283.95;;;;;;;-0.62;94.04;99200.56;4901065;29;20048;-80
2024/01/01 02:25:25;;;;;;;435.83;250.68;;;;;;;-0.63;93.94;99189.28;4898756;29;20041;-85
2024/01/01 02:28:10;;;;;;;429.40;254.82;;;;;;;-0.65;94.26;99198.25;4899798;29;20394;-85
2024/01/01 02:30:56;;;;;;;449.80;270.17;;;;;;;-0.57;94.34;99193.06;4898680;29;20053;-84
2024/01/01 02:33:41;;;;;;;452.63;267.38;;;;;;;-0.55;94.68;99191.13;4898704;29;20044;-80
2024/01/01 02:36:27;;;;;;;466.45;279.08;;;;;;;-0.57;94.42;99190.44;4898800;29;20049;-85
2024/01/01 02:39:12;;;;;;;478.20;287.42;;;;;;;-0.67;94.31;99187.16;4891245;29;20045;-84
2024/01/01 02:41:58;;;;;;;483.35;293.50;;;;;;;-0.84;94.55;99184.50;4890788;29;20052;-85
2024/01/01 02:44:44;;;;;;;485.35;292.70;;;;;;;-0.93;94.34;99181.03;4891095;29;20052;-81
2024/01/01 02:47:29;;;;;;;477.13;279.17;;;;;;;-1.05;94.19;99174.47;4877994;29;20049;-80
2024/01/01 02:50:15;;;;;;;470.08;271.30;;;;;;;-1.16;94.04;99177.31;4898470;29;20048;-86
2024/01/01 02:53:00;;;;;;;440.08;254.05;;;;;;;-1.10;94.21;99179.31;4898234;29;20048;-80
2024/01/01 02:55:46;;;;;;;437.67;249.35;;;;;;;-1.03;94.05;99193.38;4899111;29;20045;-85
2024/01/01 02:58:31;;;;;;;434.02;247.30;;;;;;;-1.00;94.48;99182.63;4905030;29;20487;-84
2024/01/01 03:01:18;;;;;;;426.00;243.15;;;;;;;-1.01;94.60;99191.41;4899180;29;20387;-85
2024/01/01 03:04:04;;;;;;;428.60;243.63;;;;;;;-1.00;94.76;99184.44;4898995;29;20060;-85
2024/01/01 03:06:49;;;;;;;171.18;84.65;;;;;;;-1.01;94.60;99180.16;4898440;29;20060;-84
2024/01/01 03:09:35;;;;;;;405.10;228.88;;;;;;;-1.01;94.72;99178.38;4890918;29;20391;-83
2024/01/01 03:12:20;;;;;;;388.35;208.82;;;;;;;-1.16;94.86;99179.94;4890531;29;20044;-84
2024/01/01 03:15:06;;;;;;;387.65;209.23;;;;;;;-1.23;94.30;99176.31;4898215;29;20037;-84
2024/01/01 03:17:52;;;;;;;385.88;211.40;;;;;;;-1.27;95.13;99173.22;4898195;29;20403;-80
2024/01/01 03:20:38;;;;;;;384.35;212.27;;;;;;;-1.28;95.08;99171.59;4882670;29;20049;-85
2024/01/01 03:23:24;;;;;;;373.90;202.15;;;;;;;-1.28;94.50;99168.97;4898239;29;20488;-81
2024/01/01 03:26:09;;;;;;;335.42;175.18;;;;;;;-1.23;94.71;99156.28;4897782;29;20044;-79
2024/01/01 03:28:55;;;;;;;393.10;212.35;;;;;;;-1.27;94.46;99169.78;4879368;29;20052;-80
2024/01/01 03:31:44;;;;;;;382.45;208.13;;;;;;;-1.32;94.33;99167.63;4901661;29;20049;-83
2024/01/01 03:34:32;;;;;;;390.15;211.93;;;;;;;-1.29;94.63;99171.72;4901885;29;20048;-84
2024/01/01 03:37:19;;;;;;;377.33;203.98;;;;;;;-1.28;94.66;99174.19;4907707;29;20479;-79
2024/01/01 03:40:06;;;;;;;383.13;207.38;;;;;;;-1.22;94.58;99164.94;4901390;29;20399;-79
2024/01/01 03:42:52;;;;;;;369.50;196.98;;;;;;;-1.21;94.96;99153.53;4893020;29;20056;-85
2024/01/01 03:45:38;;;;;;;392.77;213.93;;;;;;;-1.13;94.78;99145.72;4907459;29;20053;-79
2024/01/01 03:48:24;;;;;;;396.58;221.15;;;;;;;-1.18;95.03;99138.38;4893398;29;20052;-81
2024/01/01 03:51:10;;;;;;;405.17;224.25;;;;;;;-1.14;95.08;99151.91;4893710;29;20052;-84
2024/01/01 03:53:56;;;;;;;410.10;230.18;;;;;;;-1.06;95.14;99141.53;4893677;29;20419;-80
2024/01/01 03:56:43;;;;;;;399.98;221.98;;;;;;;-1.07;94.98;99134.66;4901269;29;20049;-83
2024/01/01 03:59:28;;;;;;;422.58;230.15;;;;;;;-1.04;95.53;99126.53;4901663;29;20041;-80
2024/01/01 04:02:14;;;;;;;411.20;226.57;;;;;;;-1.02;94.81;99126.38;4887000;29;20056;-80
2024/01/01 04:05:00;;;;;;;411.63;225.68;;;;;;;-1.01;94.75;99118.38;4893354;29;20048;-80
2024/01/01 04:07:45;;;;;;;413.83;225.98;;;;;;;-1.00;94.57;99124.44;4893355;29;20494;-80
2024/01/01 04:10:30;;;;;;;419.38;231.35;;;;;;;-1.01;94.77;99118.38;4893547;29;20041;-80
2024/01/01 04:13:16;;;;;;;421.15;233.77;;;;;;;-0.99;94.84;99106.00;4900618;29;20056;-83
2024/01/01 04:16:02;;;;;;;409.95;220.60;;;;;;;-0.98;94.95;99099.81;4901219;29;20048;-83
2024/01/01 04:18:47;;;;;;;393.00;215.40;;;;;;;-0.85;94.70;99114.19;4886983;29;20048;-83
2024/01/01 04:21:32;;;;;;;390.45;210.10;;;;;;;-0.83;94.72;99114.84;4900579;29;20052;-81
2024/01/01 04:24:18;;;;;;;394.27;213.13;;;;;;;-0.81;94.96;99121.56;4900727;29;20044;-79
2024/01/01 04:27:03;;;;;;;340.73;172.18;;;;;;;-0.80;94.56;99094.47;4900845;29;20395;-83
2024/01/01 04:29:49;;;;;;;367.70;199.75;;;;;;;-0.76;94.16;99119.25;4903428;29;20456;-83
2024/01/01 04:32:34;;;;;;;362.30;188.48;;;;;;;-0.67;94.55;99103.63;4909088;29;20487;-82
2024/01/01 04:35:20;;;;;;;344.08;184.05;;;;;;;-0.66;94.81;99100.84;4908753;29;20028;-82
2024/01/01 04:38:06;;;;;;;363.45;189.38;;;;;;;-0.62;94.75;99104.78;4923666;29;20057;-83
2024/01/01 04:40:51;;;;;;;345.13;183.32;;;;;;;-0.58;94.90;99094.84;4921374;29;20044;-78
2024/01/01 04:43:38;;;;;;;325.92;171.13;;;;;;;-0.53;94.69;99113.47;4912151;29;20044;-80
2024/01/01 04:46:23;;;;;;;341.08;171.95;;;;;;;-0.54;94.55;99089.13;4905228;29;20044;-79
2024/01/01 04:49:09;;;;;;;303.55;152.68;;;;;;;-0.57;94.66;99076.41;4918682;29;20048;-82
2024/01/01 04:51:55;;;;;;;310.95;167.15;;;;;;;-0.53;94.50;99069.09;4923254;29;20028;-80
2024/01/01 04:54:40;;;;;;;306.90;156.63;;;;;;;-0.51;94.72;99082.78;4902561;29;20048;-79
2024/01/01 04:57:26;;;;;;;298.48;152.65;;;;;;;-0.52;94.83;99081.16;4900322;29;20044;-83
2024/01/01 05:00:12;;;;;;;314.02;160.50;;;;;;;-0.49;93.94;99079.03;4900415;29;20056;-78
2024/01/01 05:02:58;;;;;;;310.73;158.75;;;;;;;-0.50;95.02;99073.97;4900271;29;20053;-80
2024/01/01 05:05:43;;;;;;;317.30;158.55;;;;;;;-0.47;94.56;99079.69;4900077;29;20044;-83
2024/01/01 05:08:29;;;;;;;285.15;150.38;;;;;;;-0.47;94.50;99063.19;4900384;29;20045;-83
2024/01/01 05:11:15;;;;;;;260.60;130.82;;;;;;;-0.48;94.92;99072.00;4900313;29;20480;-83
2024/01/01 05:14:00;;;;;;;298.70;154.77;;;;;;;-0.42;94.55;99075.78;4885374;29;20037;-77
2024/01/01 05:16:47;;;;;;;281.70;150.07;;;;;;;-0.37;94.80;99086.56;4886640;29;20052;-85
2024/01/01 05:19:32;;;;;;;246.65;125.75;;;;;;;-0.50;94.85;99079.22;4900498;29;20049;-78
2024/01/01 05:22:18;;;;;;;250.27;134.27;;;;;;;-0.40;94.21;99073.81;4908019;29;20052;-84
2024/01/01 05:25:04;;;;;;;256.45;136.45;;;;;;;-0.36;94.08;99077.72;4901966;29;20044;-80
2024/01/01 05:27:49;;;;;;;263.58;138.40;;;;;;;-0.35;94.19;99063.69;4899617;29;20045;-79
2024/01/01 05:30:35;;;;;;;253.68;129.57;;;;;;;-0.29;94.37;99078.69;4904471;29;20048;-84
2024/01/01 05:33:20;;;;;;;244.07;127.68;;;;;;;-0.30;93.92;99075.28;4903376;29;20044;-79
2024/01/01 05:36:12;;;;;;;248.50;124.82;;;;;;;-0.24;94.40;99087.69;4904598;29;20041;-79
2024/01/01 05:38:57;;;;;;;245.70;128.68;;;;;;;-0.24;93.85;99079.84;4900737;29;20044;-84
2024/01/01 05:41:43;;;;;;;250.30;131.05;;;;;;;-0.21;93.75;99062.22;4902183;29;20044;-84
2024/01/01 05:44:28;;;;;;;238.98;127.28;;;;;;;-0.26;93.86;99060.09;4899891;29;20048;-78
2024/01/01 05:47:14;;;;;;;252.18;130.10;;;;;;;-0.21;93.82;99064.84;4899094;29;20049;-78
2024/01/01 05:50:00;;;;;;;249.90;126.60;;;;;;;-0.18;94.29;99074.97;4899416;29;20483;-79
2024/01/01 05:52:46;;;;;;;239.40;127.38;;;;;;;-0.15;94.14;99053.75;4899437;29;20491;-83
2024/01/01 05:55:31;;;;;;;253.10;128.32;;;;;;;-0.16;94.08;99057.31;4898918;29;20041;-83
2024/01/01 05:58:16;;;;;;;252.48;132.30;;;;;;;-0.15;93.71;99057.16;4905487;29;20036;-83
2024/01/01 06:01:02;;;;;;;245.18;130.00;;;;;;;-0.12;94.61;99053.41;4898905;29;20052;-82
2024/01/01 06:03:48;;;;;;;248.48;131.30;;;;;;;-0.08;94.26;99054.69;4898914;29;20048;-82
2024/01/01 06:06:35;;;;;;;235.55;125.57;;;;;;;-0.06;93.56;99061.41;4898524;29;20052;-82
2024/01/01 06:09:22;;;;;;;250.43;131.18;;;;;;;-0.01;94.55;99064.31;4898737;29;20399;-81
2024/01/01 06:12:07;;;;;;;241.32;129.93;;;;;;;-0.02;93.95;99052.25;4884744;29;20511;-81
2024/01/01 06:14:54;;;;;;;273.65;136.85;;;;;;;0.03;93.57;99053.53;4899016;29;20049;-84
2024/01/01 06:17:39;;;;;;;241.02;131.32;;;;;;;0.07;94.02;99049.63;4898748;29;20423;-84
2024/01/01 06:20:24;;;;;;;258.40;134.77;;;;;;;0.12;94.13;99052.53;4898738;29;20045;-83
2024/01/01 06:23:09;;;;;;;256.48;133.05;;;;;;;0.12;94.01;99050.72;4899689;29;20057;-84
2024/01/01 06:25:55;;;;;;;259.90;133.93;;;;;;;0.19;93.57;99050.91;4899833;29;20048;-81
2024/01/01 06:28:41;;;;;;;280.90;145.07;;;;;;;0.19;93.78;99050.91;4890774;29;20052;-84
2024/01/01 06:31:26;;;;;;;250.02;129.50;;;;;;;0.19;93.44;99045.69;4898637;29;20052;-83
2024/01/01 06:34:12;;;;;;;242.95;128.73;;;;;;;0.18;93.59;99041.41;4898897;29;20048;-84
2024/01/01 06:36:57;;;;;;;255.23;140.07;;;;;;;0.22;92.91;99043.53;4898646;29;20037;-84
2024/01/01 06:39:43;;;;;;;270.42;145.82;;;;;;;0.28;93.58;99052.50;4898867;29;20044;-80
2024/01/01 06:42:29;;;;;;;374.92;177.70;;;;;;;0.40;93.40;99064.22;4898265;29;20052;-83
2024/01/01 06:45:14;;;;;;;265.02;140.52;;;;;;;0.36;92.99;99055.09;4884547;29;20491;-79
2024/01/01 06:48:00;;;;;;;416.95;203.50;;;;;;;0.46;92.93;99054.91;4898447;29;20048;-84
2024/01/01 06:50:46;;;;;;;394.70;200.43;;;;;;;0.50;92.84;99052.75;4898342;29;20053;-83
2024/01/01 06:53:31;;;;;;;278.58;148.20;;;;;;;0.52;92.96;99041.16;4898245;29;20048;-80
2024/01/01 06:56:16;;;;;;;255.50;136.18;;;;;;;0.59;92.57;99054.34;4884166;29;20036;-81
2024/01/01 06:59:02;;;;;;;247.75;130.20;;;;;;;0.50;92.70;99050.13;4884568;29;20061;-84
2024/01/01 07:01:48;;;;;;;225.27;120.50;;;;;;;0.58;92.72;99043.09;4884535;29;20060;-80
2024/01/01 07:04:33;;;;;;;236.00;123.13;;;;;;;0.65;92.43;99048.44;4902418;29;20040;-81
2024/01/01 07:07:19;;;;;;;227.63;121.22;;;;;;;0.72;92.29;99048.56;4901997;29;20045;-79
2024/01/01 07:10:05;;;;;;;235.55;127.50;;;;;;;0.74;92.31;99042.19;4901923;29;20056;-83
2024/01/01 07:12:50;;;;;;;208.90;113.68;;;;;;;0.78;92.42;99050.50;4887653;29;20053;-79
2024/01/01 07:15:37;;;;;;;228.13;117.95;;;;;;;0.80;92.28;99057.22;4902053;29;20383;-80
2024/01/01 07:18:22;;;;;;;240.57;127.38;;;;;;;0.80;92.52;99075.53;4902092;29;20058;-79
2024/01/01 07:21:08;;;;;;;248.75;134.43;;;;;;;0.81;92.64;99074.53;4902162;29;20045;-77
2024/01/01 07:23:53;;;;;;;237.73;129.35;;;;;;;0.88;91.88;99075.50;4901744;29;20049;-76
2024/01/01 07:26:39;;;;;;;226.55;121.32;;;;;;;0.96;91.80;99074.63;4901818;29;20044;-79
2024/01/01 07:29:26;;;;;;;218.38;116.07;;;;;;;0.99;91.73;99079.53;4901761;29;20053;-75
2024/01/01 07:32:11;;;;;;;193.38;106.30;;;;;;;1.04;92.44;99076.41;4901560;29;20048;-76
2024/01/01 07:34:57;;;;;;;192.20;104.95;;;;;;;1.03;91.88;99070.34;4902614;29;20044;-79
2024/01/01 07:37:42;;;;;;;183.20;99.15;;;;;;;1.11;92.18;99086.00;4895086;29;20411;-79
2024/01/01 07:40:27;;;;;;;179.50;93.68;;;;;;;1.16;92.47;99088.13;4901236;29;20059;-79
2024/01/01 07:43:13;;;;;;;201.82;103.35;;;;;;;1.12;92.58;99078.97;4901416;29;20048;-79
2024/01/01 07:45:58;;;;;;;171.93;91.78;;;;;;;1.07;92.05;99076.88;4902200;29;20489;-78
2024/01/01 07:48:44;;;;;;;187.98;104.00;;;;;;;1.19;91.60;99079.09;4893234;29;20064;-80
2024/01/01 07:51:29;;;;;;;137.07;73.68;;;;;;;1.10;91.89;99079.16;4901049;29;20049;-76
2024/01/01 07:54:15;;;;;;;204.32;110.57;;;;;;;1.01;91.52;99085.41;4900712;29;20059;-76
2024/01/01 07:57:01;;;;;;;217.15;117.82;;;;;;;0.93;92.27;99088.06;4901030;29;20048;-77
2024/01/01 07:59:46;;;;;;;203.05;113.03;;;;;;;0.88;91.86;99075.50;4900895;29;20488;-80
2024/01/01 08:02:32;;;;;;;243.50;130.85;;;;;;;0.95;92.31;99080.88;4900876;29;20040;-79
2024/01/01 08:05:17;;;;;;;248.35;134.52;;;;;;;1.10;91.99;99084.38;4900530;29;20049;-79
2024/01/01 08:08:03;;;;;;;258.10;141.18;;;;;;;1.25;92.07;99081.81;4900713;29;20036;-75
2024/01/01 08:10:49;;;;;;;361.35;190.13;;;;;;;1.46;92.07;99083.81;4900790;29;20045;-81
2024/01/01 08:13:36;;;;;;;360.35;190.68;;;;;;;1.72;91.38;99087.88;4900218;29;20497;-82
2024/01/01 08:16:22;;;;;;;304.90;162.50;;;;;;;2.05;90.95;99083.19;4901002;29;20048;-76
2024/01/01 08:19:07;;;;;;;222.65;122.53;;;;;;;2.15;90.36;99070.63;4900924;29;20489;-77
2024/01/01 08:21:53;;;;;;;217.25;122.15;;;;;;;2.47;88.78;99079.97;4900643;29;20495;-77
2024/01/01 08:24:38;;;;;;;213.93;116.18;;;;;;;2.75;87.48;99074.06;4906869;29;20044;-81
2024/01/01 08:27:24;;;;;;;189.18;103.72;;;;;;;2.93;86.35;99084.19;4900284;29;20403;-81
2024/01/01 08:30:10;;;;;;;150.60;85.47;;;;;;;3.25;85.27;99088.19;4886487;29;20056;-82
2024/01/01 08:32:56;;;;;;;185.25;98.68;;;;;;;3.35;84.88;99093.94;4900746;29;20530;-77
2024/01/01 08:35:41;;;;;;;159.65;91.07;;;;;;;3.65;83.84;99086.78;4901281;29;20047;-77
2024/01/01 08:38:27;;;;;;;169.00;89.88;;;;;;;3.81;83.40;99090.16;4900531;29;20053;-80
2024/01/01 08:41:12;;;;;;;158.25;85.38;;;;;;;3.86;83.42;99088.59;4900184;29;20502;-80
2024/01/01 08:43:57;;;;;;;134.13;70.75;;;;;;;3.84;83.79;99081.91;4906745;29;20052;-80
2024/01/01 08:46:43;;;;;;;129.27;69.65;;;;;;;3.94;84.32;99077.94;4900098;29;20056;-77
2024/01/01 08:49:29;;;;;;;94.78;47.15;;;;;;;3.96;83.77;99077.75;4900114;29;20051;-81
2024/01/01 08:52:14;;;;;;;99.15;48.63;;;;;;;4.12;83.35;99074.84;4906470;29;20111;-77
2024/01/01 08:55:02;;;;;;;108.18;56.42;;;;;;;4.38;83.58;99068.13;4900026;29;20067;-81
2024/01/01 08:57:48;;;;;;;105.97;56.00;;;;;;;4.67;82.29;99069.72;4900222;29;20056;-76
2024/01/01 09:00:33;;;;;;;104.30;53.63;;;;;;;4.83;81.72;99058.03;4899990;29;20059;-83
2024/01/01 09:03:21;;;;;;;99.53;52.55;;;;;;;5.09;80.47;99052.84;4899749;29;20079;-79
2024/01/01 09:06:07;;;;;;;94.03;53.00;;;;;;;5.02;80.31;99057.28;4899788;29;20403;-80
2024/01/01 09:08:53;;;;;;;112.20;54.67;;;;;;;5.28;79.87;99038.09;4900326;29;20155;-77
2024/01/01 09:11:38;;;;;;;113.95;56.03;;;;;;;5.38;79.21;99034.28;4899890;29;20533;-82
2024/01/01 09:14:25;;;;;;;119.97;59.60;;;;;;;5.50;79.42;99032.66;4899597;29;20056;-79
2024/01/01 09:17:11;;;;;;;111.97;58.75;;;;;;;5.77;78.67;99015.03;4899357;29;20048;-81
2024/01/01 09:19:56;;;;;;;116.03;59.53;;;;;;;6.07;79.20;99020.72;4891668;29;20063;-76
2024/01/01 09:22:42;;;;;;;124.38;65.55;;;;;;;6.11;78.18;99019.31;4899583;29;20055;-81
2024/01/01 09:25:27;;;;;;;115.45;61.67;;;;;;;6.02;77.64;99009.97;4899071;29;20059;-76
2024/01/01 09:28:13;;;;;;;127.07;66.35;;;;;;;6.06;78.11;99013.00;4899226;29;20055;-81
2024/01/01 09:30:59;;;;;;;118.93;63.50;;;;;;;6.23;78.03;99004.44;4905843;29;20063;-81
2024/01/01 09:33:46;;;;;;;105.20;57.58;;;;;;;6.52;77.01;99004.16;4905386;29;20055;-84
2024/01/01 09:36:31;;;;;;;108.25;62.63;;;;;;;6.74;76.73;99008.16;4899310;29;20044;-80
2024/01/01 09:39:17;;;;;;;121.05;64.60;;;;;;;6.94;75.98;98993.00;4899316;29;20048;-82
2024/01/01 09:42:04;;;;;;;116.60;63.95;;;;;;;7.14;76.14;98990.22;4899170;29;20057;-84
2024/01/01 09:44:49;;;;;;;136.90;71.63;;;;;;;7.38;75.08;98988.66;4884985;29;20090;-80
2024/01/01 09:47:35;;;;;;;116.65;66.78;;;;;;;7.58;74.54;98992.97;4898956;29;20055;-80
2024/01/01 09:50:20;;;;;;;118.65;65.47;;;;;;;7.80;74.80;98977.53;4899608;29;20502;-79
2024/01/01 09:53:06;;;;;;;120.45;70.95;;;;;;;8.12;74.96;98965.03;4898876;29;20059;-83
2024/01/01 09:55:53;;;;;;;147.98;80.93;;;;;;;8.40;73.69;98961.06;4899554;29;20052;-82
2024/01/01 09:58:41;;;;;;;167.00;91.45;;;;;;;8.47;73.03;98954.69;4906809;29;20055;-80
2024/01/01 10:01:30;;;;;;;134.38;71.95;;;;;;;8.55;72.60;98945.59;4899324;29;20051;-82
2024/01/01 10:04:21;;;;;;;127.40;70.60;;;;;;;8.82;72.55;98939.97;4898921;29;20063;-81
2024/01/01 10:07:06;;;;;;;126.15;71.95;;;;;;;9.00;71.79;98937.28;4899469;29;20118;-82
2024/01/01 10:09:53;;;;;;;129.02;72.07;;;;;;;9.12;71.15;98932.81;4899196;29;20060;-80
2024/01/01 10:12:45;;;;;;;123.00;67.70;;;;;;;9.33;71.35;98928.81;4903914;29;20063;-83
2024/01/01 10:15:31;;;;;;;117.55;66.05;;;;;;;9.50;70.22;98921.81;4898873;29;20055;-82
2024/01/01 10:18:17;;;;;;;120.03;67.25;;;;;;;9.50;69.58;98915.69;4899387;29;20067;-78
2024/01/01 10:21:12;;;;;;;127.43;70.20;;;;;;;9.77;69.59;98901.94;4898802;29;20059;-76
2024/01/01 10:23:59;;;;;;;127.32;72.82;;;;;;;10.12;68.82;98885.97;4890967;29;20052;-81
2024/01/01 10:26:47;;;;;;;144.52;81.45;;;;;;;10.50;69.13;98876.63;4899162;29;20459;-77
2024/01/01 10:29:35;;;;;;;135.52;80.00;;;;;;;10.83;68.19;98866.06;4899014;29;20045;-83
2024/01/01 10:32:20;;;;;;;142.23;82.63;;;;;;;11.08;67.75;98851.59;4912368;29;20045;-78
2024/01/01 10:35:07;;;;;;;144.25;80.65;;;;;;;11.00;68.08;98854.63;4894022;29;20037;-81
2024/01/01 10:37:52;;;;;;;124.10;74.97;;;;;;;11.08;68.13;98849.72;4892325;29;20052;-77
2024/01/01 10:40:39;;;;;;;120.47;68.57;;;;;;;11.21;67.24;98850.47;4916350;29;20048;-83
2024/01/01 10:43:27;;;;;;;114.55;67.05;;;;;;;11.32;67.98;98838.94;4898272;29;20495;-84
2024/01/01 10:46:14;;;;;;;106.90;61.67;;;;;;;11.42;66.31;98830.28;4893317;29;20052;-80
2024/01/01 10:49:01;;;;;;;111.93;64.70;;;;;;;11.49;66.39;98815.75;4896719;29;20048;-79
2024/01/01 10:52:12;;;;;;;111.72;68.07;;;;;;;11.60;66.71;98813.25;4910755;29;20048;-79
2024/01/01 10:55:15;;;;;;;130.48;76.60;;;;;;;11.78;65.59;98815.59;4905418;29;20487;-83
2024/01/01 10:58:12;;;;;;;121.82;72.85;;;;;;;11.97;65.69;98806.28;4909185;29;20048;-85
2024/01/01 11:01:17;;;;;;;117.93;66.90;;;;;;;12.13;65.69;98799.28;4906077;29;20056;-83
2024/01/01 11:04:05;;;;;;;120.60;72.45;;;;;;;12.29;64.95;98792.25;4905511;29;20044;-79
2024/01/01 11:06:51;;;;;;;125.30;71.65;;;;;;;12.52;64.38;98795.66;4904442;29;20049;-79
2024/01/01 11:09:37;;;;;;;210.40;116.07;;;;;;;12.67;64.14;98779.81;4898453;29;20499;-82
2024/01/01 11:12:34;;;;;;;140.80;79.13;;;;;;;12.87;63.42;98771.16;4904782;29;20427;-82
2024/01/01 11:15:41;;;;;;;139.95;77.68;;;;;;;13.15;61.77;98773.47;4890759;29;20045;-79
2024/01/01 11:18:37;;;;;;;109.97;61.17;;;;;;;13.24;61.14;98781.81;4900600;29;20531;-78
2024/01/01 11:21:27;;;;;;;110.75;57.85;;;;;;;13.49;59.40;98775.06;4902416;29;20048;-83
2024/01/01 11:24:42;;;;;;;99.35;58.30;;;;;;;13.65;60.14;98774.06;4888938;29;20053;-86
2024/01/01 11:27:35;;;;;;;81.57;44.63;;;;;;;13.85;57.74;98767.97;4901640;29;20052;-86
2024/01/01 11:30:21;;;;;;;73.20;41.50;;;;;;;14.01;57.36;98772.31;4908685;29;20291;-86
2024/01/01 11:33:07;;;;;;;81.57;47.13;;;;;;;14.23;57.39;98777.47;4908374;29;20550;-78
2024/01/01 11:36:05;;;;;;;82.20;45.30;;;;;;;14.45;56.78;98776.44;4887560;29;20063;-81
2024/01/01 11:38:55;;;;;;;29.67;16.90;;;;;;;15.00;52.92;98778.31;4904050;29;20044;-84
2024/01/01 11:41:42;;;;;;;21.83;11.75;;;;;;;15.37;50.64;98781.75;4908743;29;20407;-83
2024/01/01 11:44:28;;;;;;;24.25;12.98;;;;;;;15.48;50.59;98775.28;4901194;29;20056;-83
2024/01/01 11:47:17;;;;;;;7.93;4.60;;;;;;;15.60;49.70;98775.78;4907981;29;20060;-82
2024/01/01 11:50:05;;;;;;;13.80;5.97;;;;;;;15.58;49.31;98774.47;4901214;29;20059;-79
2024/01/01 11:53:00;;;;;;;8.30;4.68;;;;;;;15.63;48.83;98769.06;4888607;29;20059;-81
2024/01/01 11:55:47;;;;;;;6.93;4.18;;;;;;;15.81;48.29;98779.22;4901040;29;20056;-82
2024/01/01 11:58:32;;;;;;;14.90;7.13;;;;;;;16.03;47.76;98789.56;4901147;29;20051;-78
2024/01/01 12:01:18;;;;;;;11.13;5.18;;;;;;;16.16;48.39;98782.78;4901167;29;20052;-83
2024/01/01 12:04:07;;;;;;;11.05;5.35;;;;;;;16.41;47.54;98781.84;4885491;29;20083;-77
2024/01/01 12:06:52;;;;;;;5.93;3.72;;;;;;;16.50;47.37;98790.91;4902180;29;20075;-78
2024/01/01 12:09:43;;;;;;;11.65;7.60;;;;;;;16.33;48.80;98790.50;4893854;29;20059;-79
2024/01/01 12:12:30;;;;;;;8.85;4.80;;;;;;;16.44;47.94;98783.97;4900672;29;20059;-78
2024/01/01 12:15:21;;;;;;;10.65;6.32;;;;;;;16.40;47.97;98786.41;4907886;29;20055;-79
2024/01/01 12:18:15;;;;;;;6.13;4.80;;;;;;;16.45;48.18;98793.59;4901027;29;20534;-77
2024/01/01 12:21:02;;;;;;;6.80;4.57;;;;;;;16.41;48.51;98792.56;4901831;29;20047;-78
2024/01/01 12:23:49;;;;;;;8.38;4.70;;;;;;;16.50;48.08;98790.09;4901163;29;20505;-77
2024/01/01 12:26:37;;;;;;;13.10;6.18;;;;;;;16.50;47.82;98795.47;4900479;29;20051;-84
2024/01/01 12:29:26;;;;;;;7.28;4.03;;;;;;;16.28;47.95;98803.91;4900410;29;20520;-81
2024/01/01 12:32:12;;;;;;;19.38;7.95;;;;;;;16.12;47.94;98811.25;4900879;29;20048;-78
2024/01/01 12:34:58;;;;;;;11.57;5.75;;;;;;;15.84;48.80;98826.91;4906715;29;20063;-78
2024/01/01 12:37:46;;;;;;;26.58;15.05;;;;;;;14.76;54.71;98831.56;4901635;29;20051;-78